createdAt,value
2018-11-07T00:01:49.687Z,132.93
2018-11-07T00:04:18.679Z,100.23
2018-11-07T00:06:46.645Z,77.43
2018-11-07T00:09:14.721Z,75.97
2018-11-07T00:11:42.680Z,73.60
2018-11-07T00:14:10.648Z,110.43
2018-11-07T00:16:38.535Z,74.47
2018-11-07T00:19:06.502Z,69.00
2018-11-07T00:21:34.469Z,72.10
2018-11-07T00:24:02.339Z,58.97
2018-11-07T00:26:30.530Z,62.93
2018-11-07T00:28:58.478Z,58.63
2018-11-07T00:31:26.444Z,52.73
2018-11-07T00:33:54.417Z,61.20
2018-11-07T00:36:22.387Z,60.77
2018-11-07T00:38:50.327Z,54.10
2018-11-07T00:41:18.251Z,57.50
2018-11-07T00:43:46.183Z,54.80
2018-11-07T00:46:14.704Z,55.07
2018-11-07T00:48:42.613Z,59.33
2018-11-07T00:51:10.490Z,58.77
2018-11-07T00:53:38.463Z,52.03
2018-11-07T00:56:07.255Z,56.73
2018-11-07T00:58:35.223Z,55.43
2018-11-07T01:01:03.178Z,51.77
2018-11-07T01:03:31.162Z,57.83
2018-11-07T01:05:59.047Z,48.03
2018-11-07T01:08:26.911Z,46.13
2018-11-07T01:10:54.865Z,45.60
2018-11-07T01:13:22.736Z,49.40
2018-11-07T01:15:50.648Z,47.27
2018-11-07T01:18:18.558Z,42.97
2018-11-07T01:20:46.540Z,40.27
2018-11-07T01:23:14.630Z,41.97
2018-11-07T01:25:42.546Z,39.33
2018-11-07T01:28:10.522Z,39.67
2018-11-07T01:30:38.327Z,38.90
2018-11-07T01:33:06.355Z,36.63
2018-11-07T01:35:34.406Z,34.73
2018-11-07T01:38:02.334Z,35.73
2018-11-07T01:40:30.299Z,37.10
2018-11-07T01:42:58.185Z,33.73
2018-11-07T01:45:26.111Z,37.67
2018-11-07T01:47:54.106Z,34.97
2018-11-07T01:50:22.071Z,32.27
2018-11-07T01:52:51.731Z,30.57
2018-11-07T01:55:19.700Z,31.63
2018-11-07T01:57:47.581Z,30.00
2018-11-07T02:00:15.578Z,30.63
2018-11-07T02:02:43.939Z,33.37
2018-11-07T02:05:12.056Z,28.53
2018-11-07T02:07:40.209Z,24.63
2018-11-07T02:10:08.871Z,30.70
2018-11-07T02:12:36.834Z,28.97
2018-11-07T02:15:05.246Z,27.20
2018-11-07T02:17:33.160Z,26.20
2018-11-07T02:20:01.097Z,26.87
2018-11-07T02:22:29.011Z,27.30
2018-11-07T02:24:57.005Z,27.50
2018-11-07T02:27:26.684Z,26.57
2018-11-07T02:29:54.583Z,29.23
2018-11-07T02:32:22.668Z,30.67
2018-11-07T02:34:50.813Z,33.03
2018-11-07T02:37:18.691Z,29.87
2018-11-07T02:39:46.651Z,27.13
2018-11-07T02:42:14.543Z,25.70
2018-11-07T02:44:42.499Z,24.83
2018-11-07T02:47:10.364Z,25.60
2018-11-07T02:49:38.230Z,28.07
2018-11-07T02:52:06.134Z,28.07
2018-11-07T02:54:34.059Z,29.20
2018-11-07T02:57:01.996Z,36.73
2018-11-07T02:59:29.916Z,33.77
2018-11-07T03:01:57.856Z,35.93
2018-11-07T03:04:25.753Z,31.47
2018-11-07T03:06:53.724Z,33.03
2018-11-07T03:09:21.679Z,31.50
2018-11-07T03:11:49.607Z,32.67
2018-11-07T03:14:17.509Z,33.97
2018-11-07T03:16:45.403Z,31.60
2018-11-07T03:19:13.333Z,36.20
2018-11-07T03:21:41.321Z,32.07
2018-11-07T03:24:09.201Z,38.63
2018-11-07T03:26:37.182Z,34.23
2018-11-07T03:29:05.095Z,36.10
2018-11-07T03:31:33.023Z,33.90
2018-11-07T03:34:00.921Z,33.80
2018-11-07T03:36:28.833Z,33.43
2018-11-07T03:38:56.718Z,33.70
2018-11-07T03:41:24.907Z,31.10
2018-11-07T03:43:52.928Z,30.23
2018-11-07T03:46:20.824Z,25.83
2018-11-07T03:48:48.687Z,29.03
2018-11-07T03:51:18.349Z,31.27
2018-11-07T03:53:46.283Z,26.40
2018-11-07T03:56:14.196Z,25.87
2018-11-07T03:58:49.874Z,28.30
2018-11-07T04:01:17.819Z,27.10
2018-11-07T04:03:45.787Z,27.80
2018-11-07T04:06:13.855Z,25.47
2018-11-07T04:08:41.742Z,22.80
2018-11-07T04:11:09.683Z,23.83
2018-11-07T04:13:37.563Z,23.13
2018-11-07T04:16:05.583Z,19.83
2018-11-07T04:18:33.526Z,19.20
2018-11-07T04:21:01.414Z,57.37
2018-11-07T04:23:29.347Z,82.90
2018-11-07T04:25:57.387Z,23.10
2018-11-07T04:28:25.387Z,41.10
2018-11-07T04:30:53.270Z,27.80
2018-11-07T04:33:21.243Z,48.53
2018-11-07T04:35:49.111Z,32.87
2018-11-07T04:38:17.076Z,33.20
2018-11-07T04:40:44.955Z,32.30
2018-11-07T04:43:12.815Z,38.43
2018-11-07T04:45:40.779Z,67.17
2018-11-07T04:48:08.659Z,35.10
2018-11-07T04:50:36.616Z,31.93
2018-11-07T04:53:04.487Z,38.07
2018-11-07T04:55:32.463Z,56.80
2018-11-07T04:58:00.341Z,44.70
2018-11-07T05:00:28.495Z,35.67
2018-11-07T05:02:56.393Z,49.60
2018-11-07T05:05:24.327Z,40.93
2018-11-07T05:07:52.232Z,44.23
2018-11-07T05:10:20.158Z,42.60
2018-11-07T05:12:48.043Z,41.07
2018-11-07T05:15:16.017Z,39.73
2018-11-07T05:17:44.039Z,61.40
2018-11-07T05:20:12.060Z,43.10
2018-11-07T05:22:40.254Z,55.67
2018-11-07T05:25:09.018Z,42.63
2018-11-07T05:27:36.980Z,59.50
2018-11-07T05:30:08.011Z,41.80
2018-11-07T05:32:36.007Z,58.17
2018-11-07T05:35:03.952Z,50.73
2018-11-07T05:37:31.835Z,47.83
2018-11-07T05:39:59.746Z,67.10
2018-11-07T05:42:27.671Z,29.50
2018-11-07T05:44:55.634Z,33.13
2018-11-07T05:47:23.499Z,31.40
2018-11-07T05:49:51.463Z,29.50
2018-11-07T05:52:19.327Z,29.90
2018-11-07T05:54:47.287Z,28.57
2018-11-07T05:57:15.186Z,25.10
2018-11-07T05:59:43.100Z,25.90
2018-11-07T06:02:11.083Z,27.47
2018-11-07T06:04:39.100Z,24.87
2018-11-07T06:07:07.119Z,26.87
2018-11-07T06:09:35.041Z,28.53
2018-11-07T06:12:02.991Z,32.57
2018-11-07T06:14:30.886Z,125.87
2018-11-07T06:17:02.610Z,60.73
2018-11-07T06:19:30.585Z,34.17
2018-11-07T06:21:58.459Z,42.80
2018-11-07T06:24:26.624Z,92.03
2018-11-07T06:26:54.472Z,63.77
2018-11-07T06:29:22.555Z,54.03
2018-11-07T06:31:52.128Z,131.93
2018-11-07T06:34:20.234Z,48.63
2018-11-07T06:36:48.235Z,118.93
2018-11-07T06:39:16.223Z,85.30
2018-11-07T06:41:44.114Z,80.57
2018-11-07T06:44:12.123Z,55.77
2018-11-07T06:46:40.095Z,56.20
2018-11-07T06:49:08.052Z,36.00
2018-11-07T06:51:37.767Z,55.47
2018-11-07T06:54:05.871Z,32.80
2018-11-07T06:56:33.833Z,59.33
2018-11-07T06:59:01.998Z,39.80
2018-11-07T07:01:30.013Z,28.57
2018-11-07T07:03:57.944Z,33.93
2018-11-07T07:06:25.900Z,27.97
2018-11-07T07:08:53.860Z,27.37
2018-11-07T07:11:21.941Z,24.07
2018-11-07T07:13:49.908Z,24.03
2018-11-07T07:16:17.991Z,19.40
2018-11-07T07:18:45.931Z,15.87
2018-11-07T07:21:14.011Z,17.00
2018-11-07T07:23:42.063Z,15.50
2018-11-07T07:26:10.030Z,14.60
2018-11-07T07:28:38.179Z,14.37
2018-11-07T07:31:06.203Z,18.93
2018-11-07T07:33:34.216Z,17.17
2018-11-07T07:36:02.114Z,15.10
2018-11-07T07:38:30.200Z,13.47
2018-11-07T07:40:58.155Z,13.43
2018-11-07T07:43:26.503Z,13.33
2018-11-07T07:45:54.392Z,13.07
2018-11-07T07:48:22.380Z,11.83
2018-11-07T07:50:50.288Z,14.83
2018-11-07T07:53:18.558Z,13.47
2018-11-07T07:55:46.392Z,12.97
2018-11-07T07:58:14.346Z,12.63
2018-11-07T08:00:42.241Z,12.30
2018-11-07T08:03:10.207Z,13.93
2018-11-07T08:05:38.172Z,14.30
2018-11-07T08:08:06.579Z,16.60
2018-11-07T08:10:34.508Z,12.83
2018-11-07T08:13:02.490Z,16.33
2018-11-07T08:15:30.420Z,13.13
2018-11-07T08:17:58.430Z,20.30
2018-11-07T08:20:26.427Z,14.77
2018-11-07T08:22:54.367Z,16.63
2018-11-07T08:25:22.363Z,14.30
2018-11-07T08:27:50.303Z,12.60
2018-11-07T08:30:19.592Z,13.57
2018-11-07T08:32:47.515Z,17.03
2018-11-07T08:35:16.394Z,12.53
2018-11-07T08:37:45.157Z,13.17
2018-11-07T08:40:14.879Z,11.77
2018-11-07T08:42:42.773Z,11.07
2018-11-07T08:45:11.535Z,11.07
2018-11-07T08:47:39.588Z,11.40
2018-11-07T08:50:08.830Z,12.40
2018-11-07T08:52:36.761Z,13.00
2018-11-07T08:55:05.391Z,11.87
2018-11-07T08:57:33.235Z,12.70
2018-11-07T09:00:01.240Z,10.70
2018-11-07T09:02:29.140Z,11.73
2018-11-07T09:04:57.087Z,13.40
2018-11-07T09:07:24.987Z,12.53
2018-11-07T09:09:59.463Z,13.20
2018-11-07T09:12:27.442Z,11.17
2018-11-07T09:14:55.439Z,11.43
2018-11-07T09:17:23.371Z,11.90
2018-11-07T09:19:51.319Z,10.87
2018-11-07T09:22:19.141Z,10.63
2018-11-07T09:24:47.028Z,10.93
2018-11-07T09:27:14.928Z,10.90
2018-11-07T09:29:42.851Z,14.47
2018-11-07T09:32:10.771Z,11.77
2018-11-07T09:34:38.664Z,11.63
2018-11-07T09:37:06.567Z,13.20
2018-11-07T09:39:34.527Z,10.93
2018-11-07T09:42:02.392Z,10.70
2018-11-07T09:44:30.287Z,11.17
2018-11-07T09:46:58.251Z,11.80
2018-11-07T09:49:26.176Z,13.67
2018-11-07T09:51:55.619Z,12.50
2018-11-07T09:54:23.604Z,12.07
2018-11-07T09:56:51.614Z,13.10
2018-11-07T09:59:19.547Z,11.13
2018-11-07T10:01:47.460Z,10.77
2018-11-07T10:04:15.367Z,14.00
2018-11-07T10:06:43.410Z,13.57
2018-11-07T10:09:12.003Z,13.43
2018-11-07T10:11:39.940Z,11.50
2018-11-07T10:14:08.159Z,15.50
2018-11-07T10:16:36.227Z,14.90
2018-11-07T10:19:04.272Z,10.73
2018-11-07T10:21:32.203Z,11.90
2018-11-07T10:24:00.105Z,11.77
2018-11-07T10:26:28.001Z,21.90
2018-11-07T10:28:56.228Z,18.73
2018-11-07T10:31:23.827Z,13.03
2018-11-07T10:33:51.751Z,13.87
2018-11-07T10:36:19.670Z,11.23
2018-11-07T10:38:47.685Z,11.57
2018-11-07T10:41:15.564Z,10.33
2018-11-07T10:43:43.474Z,9.60
2018-11-07T10:46:11.404Z,9.33
2018-11-07T10:48:39.249Z,10.27
2018-11-07T10:51:07.155Z,9.17
2018-11-07T10:53:35.048Z,8.97
2018-11-07T10:56:02.947Z,8.27
2018-11-07T10:58:30.891Z,8.77
2018-11-07T11:01:04.184Z,9.27
2018-11-07T11:03:32.295Z,8.50
2018-11-07T11:06:00.192Z,9.43
2018-11-07T11:08:28.136Z,11.40
2018-11-07T11:10:57.686Z,13.00
2018-11-07T11:13:25.767Z,9.07
2018-11-07T11:15:53.687Z,8.90
2018-11-07T11:18:21.595Z,11.63
2018-11-07T11:20:49.503Z,12.70
2018-11-07T11:23:17.404Z,9.10
2018-11-07T11:25:45.345Z,9.47
2018-11-07T11:28:13.263Z,10.10
2018-11-07T11:30:41.198Z,9.00
2018-11-07T11:33:09.092Z,10.97
2018-11-07T11:35:37.030Z,9.40
2018-11-07T11:38:05.190Z,10.60
2018-11-07T11:40:33.085Z,10.70
2018-11-07T11:43:00.972Z,10.17
2018-11-07T11:45:28.856Z,12.37
2018-11-07T11:47:56.743Z,9.97
2018-11-07T11:50:24.639Z,11.83
2018-11-07T11:52:52.540Z,7.97
2018-11-07T11:55:20.450Z,7.83
2018-11-07T11:57:48.363Z,9.57
2018-11-07T12:00:17.545Z,9.83
2018-11-07T12:02:45.713Z,9.10
2018-11-07T12:05:14.441Z,7.60
2018-11-07T12:07:42.503Z,12.77
2018-11-07T12:10:16.021Z,11.43
2018-11-07T12:12:45.964Z,10.87
2018-11-07T12:15:14.403Z,11.90
2018-11-07T12:17:42.463Z,14.57
2018-11-07T12:20:10.970Z,11.87
2018-11-07T12:25:24.773Z,9.80
2018-11-07T12:27:52.666Z,11.00
2018-11-07T12:30:21.760Z,12.30
2018-11-07T12:32:50.661Z,9.83
2018-11-07T12:35:19.059Z,14.17
2018-11-07T12:37:47.194Z,10.40
2018-11-07T12:40:15.443Z,9.77
2018-11-07T12:42:43.383Z,8.63
2018-11-07T12:45:12.183Z,9.87
2018-11-07T12:47:40.266Z,10.77
2018-11-07T12:50:09.031Z,11.33
2018-11-07T12:52:36.852Z,10.73
2018-11-07T12:55:05.647Z,11.83
2018-11-07T12:57:33.756Z,9.37
2018-11-07T13:00:01.620Z,9.67
2018-11-07T13:02:29.628Z,9.37
2018-11-07T13:04:57.547Z,10.77
2018-11-07T13:07:25.464Z,8.73
2018-11-07T13:09:53.371Z,9.10
2018-11-07T13:12:21.248Z,9.23
2018-11-07T13:14:50.560Z,7.43
2018-11-07T13:17:18.485Z,7.20
2018-11-07T13:19:46.387Z,8.47
2018-11-07T13:22:14.337Z,11.73
2018-11-07T13:24:42.172Z,8.73
2018-11-07T13:27:10.080Z,8.07
2018-11-07T13:29:37.967Z,7.40
2018-11-07T13:32:05.861Z,5.43
2018-11-07T13:34:33.836Z,6.10
2018-11-07T13:37:01.824Z,6.13
2018-11-07T13:39:29.606Z,5.00
2018-11-07T13:41:57.535Z,6.10
2018-11-07T13:44:25.433Z,4.57
2018-11-07T13:46:53.321Z,4.77
2018-11-07T13:49:21.244Z,4.77
2018-11-07T13:51:52.526Z,4.30
2018-11-07T13:54:20.419Z,6.70
2018-11-07T13:56:48.289Z,5.47
2018-11-07T13:59:16.226Z,5.77
2018-11-07T14:01:44.065Z,4.93
2018-11-07T14:04:11.999Z,4.23
2018-11-07T14:06:39.913Z,7.33
2018-11-07T14:09:08.375Z,6.87
2018-11-07T14:11:36.289Z,5.17
2018-11-07T14:14:04.359Z,3.90
2018-11-07T14:16:32.309Z,6.03
2018-11-07T14:19:00.141Z,4.10
2018-11-07T14:21:28.025Z,6.00
2018-11-07T14:23:55.888Z,6.07
2018-11-07T14:26:23.814Z,3.73
2018-11-07T14:28:51.704Z,5.33
2018-11-07T14:31:19.630Z,4.03
2018-11-07T14:33:47.529Z,4.03
2018-11-07T14:36:15.413Z,5.60
2018-11-07T14:38:44.591Z,5.20
2018-11-07T14:41:13.736Z,3.70
2018-11-07T14:43:41.646Z,6.40
2018-11-07T14:46:09.626Z,5.17
2018-11-07T14:48:37.452Z,5.90
2018-11-07T14:51:08.493Z,6.17
2018-11-07T14:53:36.474Z,3.93
2018-11-07T14:56:04.411Z,5.73
2018-11-07T14:58:32.304Z,3.93
2018-11-07T15:01:00.197Z,5.10
2018-11-07T15:03:28.115Z,3.60
2018-11-07T15:05:56.076Z,4.90
2018-11-07T15:08:23.978Z,5.00
2018-11-07T15:10:51.760Z,4.00
2018-11-07T15:13:19.757Z,8.33
2018-11-07T15:15:47.631Z,4.63
2018-11-07T15:18:15.558Z,12.47
2018-11-07T15:20:43.489Z,4.50
2018-11-07T15:23:11.375Z,7.83
2018-11-07T15:25:39.271Z,7.37
2018-11-07T15:28:07.153Z,6.93
2018-11-07T15:30:35.055Z,6.10
2018-11-07T15:33:02.965Z,7.50
2018-11-07T15:35:30.858Z,9.50
2018-11-07T15:37:58.737Z,5.57
2018-11-07T15:40:26.653Z,6.77
2018-11-07T15:42:54.547Z,4.33
2018-11-07T15:45:22.431Z,5.93
2018-11-07T15:47:50.315Z,8.67
2018-11-07T15:50:23.819Z,42.30
2018-11-07T15:52:51.740Z,18.87
2018-11-07T15:55:19.639Z,5.70
2018-11-07T15:57:47.559Z,5.60
2018-11-07T16:00:16.591Z,6.00
2018-11-07T16:02:44.492Z,7.93
2018-11-07T16:05:13.449Z,4.80
2018-11-07T16:07:41.367Z,7.77
2018-11-07T16:10:10.332Z,6.93
2018-11-07T16:12:38.643Z,6.67
2018-11-07T16:15:07.076Z,9.37
2018-11-07T16:17:34.965Z,8.90
2018-11-07T16:20:02.904Z,4.87
2018-11-07T16:22:30.918Z,7.80
2018-11-07T16:24:58.797Z,5.97
2018-11-07T16:27:26.681Z,7.37
2018-11-07T16:29:54.591Z,6.13
2018-11-07T16:32:22.501Z,5.43
2018-11-07T16:34:50.392Z,5.53
2018-11-07T16:37:18.323Z,7.90
2018-11-07T16:39:46.199Z,8.03
2018-11-07T16:42:14.100Z,7.93
2018-11-07T16:44:42.003Z,9.27
2018-11-07T16:47:09.976Z,6.53
2018-11-07T16:49:37.835Z,5.83
2018-11-07T16:52:06.103Z,10.17
2018-11-07T16:54:34.013Z,8.77
2018-11-07T16:57:01.900Z,7.60
2018-11-07T16:59:29.825Z,9.23
2018-11-07T17:01:57.723Z,9.53
2018-11-07T17:04:25.686Z,5.90
2018-11-07T17:06:53.512Z,5.40
2018-11-07T17:09:21.445Z,8.27
2018-11-07T17:11:49.335Z,7.30
2018-11-07T17:14:17.251Z,5.73
2018-11-07T17:16:45.190Z,7.50
2018-11-07T17:19:13.312Z,4.63
2018-11-07T17:21:47.788Z,8.03
2018-11-07T17:24:15.754Z,4.90
2018-11-07T17:26:43.589Z,6.80
2018-11-07T17:29:11.451Z,5.77
2018-11-07T17:31:39.473Z,8.03
2018-11-07T17:34:07.285Z,6.87
2018-11-07T17:36:35.187Z,6.60
2018-11-07T17:39:03.268Z,8.20
2018-11-07T17:41:31.143Z,8.63
2018-11-07T17:43:59.070Z,6.20
2018-11-07T17:46:26.998Z,7.70
2018-11-07T17:48:54.892Z,11.93
2018-11-07T17:51:22.832Z,7.50
2018-11-07T17:53:52.092Z,7.83
2018-11-07T17:56:20.091Z,7.27
2018-11-07T17:58:47.943Z,7.93
2018-11-07T18:01:15.836Z,7.33
2018-11-07T18:03:43.825Z,9.43
2018-11-07T18:06:11.679Z,9.37
2018-11-07T18:08:39.718Z,9.00
2018-11-07T18:11:07.888Z,7.13
2018-11-07T18:13:35.794Z,10.40
2018-11-07T18:16:03.653Z,9.20
2018-11-07T18:18:31.748Z,8.77
2018-11-07T18:20:59.787Z,7.90
2018-11-07T18:26:18.812Z,10.40
2018-11-07T18:28:46.737Z,8.80
2018-11-07T18:31:14.680Z,9.60
2018-11-07T18:33:42.571Z,10.67
2018-11-07T18:36:10.479Z,17.27
2018-11-07T18:38:38.387Z,10.73
2018-11-07T18:41:06.327Z,11.10
2018-11-07T18:43:34.199Z,9.20
2018-11-07T18:46:02.096Z,6.83
2018-11-07T18:51:16.436Z,7.63
2018-11-07T18:53:44.356Z,8.57
2018-11-07T18:56:12.300Z,8.00
2018-11-07T18:58:40.400Z,6.30
2018-11-07T19:01:08.256Z,7.70
2018-11-07T19:03:36.208Z,8.93
2018-11-07T19:06:04.242Z,6.90
2018-11-07T19:08:32.235Z,6.63
2018-11-07T19:11:00.178Z,5.30
2018-11-07T19:13:28.549Z,6.53
2018-11-07T19:15:56.449Z,6.67
2018-11-07T19:18:24.340Z,7.43
2018-11-07T19:20:52.261Z,7.50
2018-11-07T19:23:20.160Z,5.03
2018-11-07T19:25:48.056Z,8.93
2018-11-07T19:28:15.961Z,4.77
2018-11-07T19:30:43.891Z,4.17
2018-11-07T19:33:11.894Z,4.47
2018-11-07T19:35:39.720Z,2.67
2018-11-07T19:38:07.638Z,3.93
2018-11-07T19:40:35.549Z,3.93
2018-11-07T19:43:03.449Z,4.40
2018-11-07T19:45:31.348Z,6.03
2018-11-07T19:47:59.254Z,6.70
2018-11-07T19:50:27.132Z,1.97
2018-11-07T19:52:55.133Z,4.20
2018-11-07T19:55:23.881Z,4.50
2018-11-07T19:57:55.730Z,4.43
2018-11-07T20:00:23.721Z,3.37
2018-11-07T20:02:51.649Z,3.60
2018-11-07T20:05:19.548Z,3.53
2018-11-07T20:07:47.523Z,4.83
2018-11-07T20:10:17.084Z,3.77
2018-11-07T20:12:44.971Z,3.30
2018-11-07T20:15:14.047Z,4.77
2018-11-07T20:17:41.972Z,3.73
2018-11-07T20:20:10.314Z,5.00
2018-11-07T20:22:38.278Z,7.00
2018-11-07T20:25:06.619Z,4.53
2018-11-07T20:27:34.516Z,3.43
2018-11-07T20:30:02.455Z,5.43
2018-11-07T20:32:30.443Z,3.80
2018-11-07T20:35:10.893Z,3.90
2018-11-07T20:37:38.816Z,4.23
2018-11-07T20:40:07.898Z,7.10
2018-11-07T20:42:35.831Z,12.40
2018-11-07T20:45:04.052Z,4.50
2018-11-07T20:47:33.511Z,4.73
2018-11-07T20:50:01.529Z,5.60
2018-11-07T20:52:29.416Z,7.67
2018-11-07T20:54:57.386Z,5.60
2018-11-07T20:57:25.259Z,7.33
2018-11-07T20:59:54.426Z,5.87
2018-11-07T21:02:22.402Z,7.27
2018-11-07T21:04:50.300Z,6.87
2018-11-07T21:07:18.262Z,7.17
2018-11-07T21:09:46.172Z,9.63
2018-11-07T21:12:14.084Z,8.13
2018-11-07T21:14:42.026Z,8.33
2018-11-07T21:17:09.920Z,6.07
2018-11-07T21:19:37.821Z,7.57
2018-11-07T21:22:08.032Z,6.57
2018-11-07T21:24:35.935Z,8.97
2018-11-07T21:27:03.921Z,6.47
2018-11-07T21:29:31.780Z,8.73
2018-11-07T21:31:59.674Z,9.20
2018-11-07T21:34:27.559Z,8.87
2018-11-07T21:36:55.431Z,7.93
2018-11-07T21:39:23.362Z,8.73
2018-11-07T21:41:51.279Z,10.30
2018-11-07T21:44:19.204Z,7.33
2018-11-07T21:46:47.131Z,16.23
2018-11-07T21:49:15.045Z,9.70
2018-11-07T21:51:42.959Z,5.20
2018-11-07T21:54:10.862Z,6.83
2018-11-07T21:56:38.776Z,7.23
2018-11-07T21:59:06.739Z,9.30
2018-11-07T22:01:34.642Z,6.33
2018-11-07T22:04:02.514Z,6.37
2018-11-07T22:06:30.407Z,7.47
2018-11-07T22:08:58.286Z,6.53
2018-11-07T22:11:26.215Z,6.27
2018-11-07T22:13:54.108Z,7.30
2018-11-07T22:16:22.222Z,6.27
2018-11-07T22:18:50.127Z,5.40
2018-11-07T22:21:18.015Z,5.50
2018-11-07T22:23:45.951Z,8.20
2018-11-07T22:26:13.894Z,6.70
2018-11-07T22:28:41.804Z,8.07
2018-11-07T22:31:09.697Z,6.27
2018-11-07T22:33:38.199Z,7.00
2018-11-07T22:36:06.097Z,8.13
2018-11-07T22:38:34.097Z,7.53
2018-11-07T22:41:01.983Z,6.17
2018-11-07T22:43:29.884Z,6.73
2018-11-07T22:45:57.871Z,7.90
2018-11-07T22:48:25.773Z,7.57
2018-11-07T22:50:53.678Z,5.87
2018-11-07T22:53:21.637Z,5.77
2018-11-07T22:55:49.532Z,8.37
2018-11-07T22:58:17.438Z,7.57
2018-11-07T23:00:50.875Z,10.73
2018-11-07T23:03:18.791Z,7.07
2018-11-07T23:05:46.698Z,4.90
2018-11-07T23:08:14.581Z,6.70
2018-11-07T23:10:42.514Z,5.13
2018-11-07T23:13:10.448Z,8.33
2018-11-07T23:15:43.763Z,6.20
2018-11-07T23:18:11.659Z,9.30
2018-11-07T23:20:39.538Z,9.30
2018-11-07T23:23:07.447Z,7.10
2018-11-07T23:25:35.348Z,4.93
2018-11-07T23:28:03.235Z,7.10
2018-11-07T23:30:31.137Z,7.97
2018-11-07T23:32:59.088Z,6.30
2018-11-07T23:35:26.996Z,8.17
2018-11-07T23:37:54.888Z,5.97
2018-11-07T23:40:22.802Z,6.40
2018-11-07T23:42:50.697Z,9.23
2018-11-07T23:45:18.722Z,7.90
2018-11-07T23:47:46.690Z,7.43
2018-11-07T23:50:14.592Z,10.63
2018-11-07T23:52:46.687Z,11.33
2018-11-07T23:55:14.841Z,8.23
2018-11-07T23:57:42.758Z,8.10
